Time;durP1;ratioP1;P1;durP2;ratioP2;P2;SDS_P1;SDS_P2;PMS_P1;PMS_P2;Temp;Humidity;BMP_temperature;BMP_pressure;BME280_temperature;BME280_humidity;BME280_pressure;Samples;Min_cycle;Max_cycle;Signal;HPM_P1;HPM_P2
2022/01/07 00:01:22;;;;;;;4.18;2.17;;;;;10.40;101153.00;;;;5018646;28;20216;-78
2022/01/07 00:03:49;;;;;;;6.50;2.58;;;;;10.40;101151.00;;;;5019934;28;20203;-79
2022/01/07 00:06:16;;;;;;;3.08;1.98;;;;;10.30;101146.00;;;;5028216;28;20585;-79
2022/01/07 00:08:45;;;;;;;5.57;2.50;;;;;10.30;101148.00;;;;5028335;28;20199;-79
2022/01/07 00:11:12;;;;;;;4.25;2.30;;;;;10.30;101142.00;;;;5023548;28;20218;-79
2022/01/07 00:13:40;;;;;;;5.22;2.65;;;;;10.30;101140.00;;;;5026846;28;20289;-79
2022/01/07 00:16:08;;;;;;;4.75;2.20;;;;;10.30;101140.00;;;;5028063;28;20235;-78
2022/01/07 00:18:35;;;;;;;3.50;1.98;;;;;10.30;101146.00;;;;5011030;28;20255;-79
2022/01/07 00:21:02;;;;;;;6.70;2.38;;;;;10.30;101130.00;;;;5007768;28;20196;-79
2022/01/07 00:23:31;;;;;;;5.72;2.10;;;;;10.30;101135.00;;;;5020055;28;20197;-79
2022/01/07 00:25:59;;;;;;;4.50;2.13;;;;;10.20;101126.00;;;;5025868;28;20200;-79
2022/01/07 00:28:27;;;;;;;5.65;2.15;;;;;10.20;101118.00;;;;5013652;28;20663;-78
2022/01/07 00:30:54;;;;;;;5.30;2.13;;;;;10.20;101115.00;;;;5008066;28;20205;-79
2022/01/07 00:33:21;;;;;;;2.20;1.70;;;;;10.20;101115.00;;;;5008157;28;20197;-78
2022/01/07 00:35:50;;;;;;;7.15;2.30;;;;;10.10;101104.00;;;;5007913;28;20912;-79
2022/01/07 00:38:18;;;;;;;4.47;2.13;;;;;10.10;101104.00;;;;5020542;28;20207;-79
2022/01/07 00:40:45;;;;;;;5.22;2.05;;;;;10.10;101104.00;;;;5023505;28;20675;-78
2022/01/07 00:43:18;;;;;;;2.58;1.63;;;;;10.10;101092.00;;;;5028389;28;20196;-79
2022/01/07 00:45:45;;;;;;;3.85;2.17;;;;;10.10;101080.00;;;;5019433;28;20204;-79
2022/01/07 00:48:12;;;;;;;5.13;1.90;;;;;10.00;101077.00;;;;5027527;28;20196;-79
2022/01/07 00:50:40;;;;;;;2.90;1.85;;;;;10.00;101073.00;;;;5031855;28;20250;-79
2022/01/07 00:53:07;;;;;;;3.25;1.83;;;;;10.00;101067.00;;;;5028881;28;20251;-79
2022/01/07 00:55:36;;;;;;;4.82;2.60;;;;;10.00;101067.00;;;;5022914;28;20232;-79
2022/01/07 00:58:04;;;;;;;2.30;1.33;;;;;10.00;101064.00;;;;5012910;28;20197;-79
2022/01/07 01:00:33;;;;;;;3.78;1.90;;;;;10.00;101058.00;;;;5020511;28;20215;-79
2022/01/07 01:03:01;;;;;;;2.75;1.60;;;;;10.00;101057.00;;;;5021000;28;20201;-79
2022/01/07 01:05:30;;;;;;;3.65;1.92;;;;;10.00;101058.00;;;;5016802;28;20718;-79
2022/01/07 01:07:57;;;;;;;2.85;1.67;;;;;10.00;101054.00;;;;5012644;28;20216;-79
2022/01/07 01:10:25;;;;;;;3.05;1.77;;;;;10.00;101057.00;;;;5011771;28;20662;-79
2022/01/07 01:12:54;;;;;;;3.10;1.80;;;;;10.00;101041.00;;;;5027993;28;20307;-79
2022/01/07 01:15:23;;;;;;;3.55;1.88;;;;;10.00;101040.00;;;;5021933;28;20589;-78
2022/01/07 01:17:53;;;;;;;6.70;1.83;;;;;10.00;101032.00;;;;5013671;28;21095;-79
2022/01/07 01:20:21;;;;;;;4.68;1.92;;;;;10.00;101031.00;;;;5014975;28;20201;-79
2022/01/07 01:22:49;;;;;;;6.70;1.90;;;;;10.00;101026.00;;;;5031383;28;20199;-79
2022/01/07 01:25:17;;;;;;;3.28;1.88;;;;;10.00;101024.00;;;;5020344;28;20208;-78
2022/01/07 01:27:45;;;;;;;4.53;1.73;;;;;10.00;101021.00;;;;5011108;28;20557;-78
2022/01/07 01:30:17;;;;;;;4.13;1.73;;;;;10.00;101027.00;;;;5019865;28;20250;-79
2022/01/07 01:32:44;;;;;;;3.92;1.80;;;;;10.00;101014.00;;;;5022018;28;20197;-79
2022/01/07 01:35:14;;;;;;;3.15;1.60;;;;;10.00;101026.00;;;;5023877;28;20220;-79
2022/01/07 01:37:41;;;;;;;5.00;2.28;;;;;10.00;101017.00;;;;5011947;28;20208;-79
2022/01/07 01:40:10;;;;;;;6.13;2.17;;;;;10.00;101013.00;;;;5015274;28;20200;-79
2022/01/07 01:42:38;;;;;;;4.65;1.95;;;;;10.00;101010.00;;;;5024239;28;20211;-79
2022/01/07 01:45:08;;;;;;;4.97;2.03;;;;;10.00;101010.00;;;;5029820;28;20196;-79
2022/01/07 01:47:36;;;;;;;4.68;2.22;;;;;10.00;101011.00;;;;5012756;28;20552;-79
2022/01/07 01:50:05;;;;;;;3.97;2.00;;;;;10.00;101012.00;;;;5024084;28;20212;-79
2022/01/07 01:52:35;;;;;;;5.88;2.10;;;;;10.00;101003.00;;;;5017149;28;20283;-78
2022/01/07 01:55:03;;;;;;;5.25;2.03;;;;;10.00;101003.00;;;;5031194;28;20202;-78
2022/01/07 01:57:31;;;;;;;3.67;1.77;;;;;10.00;100999.00;;;;5012632;28;20197;-79
2022/01/07 01:59:59;;;;;;;4.32;1.60;;;;;10.00;101000.00;;;;5021385;28;20193;-79
2022/01/07 02:02:27;;;;;;;1.80;1.50;;;;;10.00;100994.00;;;;5030484;28;20192;-78
2022/01/07 02:04:55;;;;;;;3.92;2.00;;;;;10.00;100994.00;;;;5019644;28;20227;-78
2022/01/07 02:07:25;;;;;;;3.70;1.80;;;;;10.00;100991.00;;;;5017406;28;20228;-79
2022/01/07 02:09:54;;;;;;;4.28;1.98;;;;;10.00;100974.00;;;;5011288;28;20235;-78
2022/01/07 02:12:22;;;;;;;1.90;1.42;;;;;10.00;100976.00;;;;5010784;28;20207;-78
2022/01/07 02:14:53;;;;;;;3.20;1.80;;;;;10.00;100970.00;;;;5010094;28;20240;-78
2022/01/07 02:17:21;;;;;;;2.38;1.83;;;;;10.00;100965.00;;;;5010423;28;20228;-78
2022/01/07 02:19:50;;;;;;;3.88;1.73;;;;;9.90;100959.00;;;;5015466;28;20323;-78
2022/01/07 02:22:18;;;;;;;3.30;1.60;;;;;9.90;100956.00;;;;5011115;28;20205;-79
2022/01/07 02:24:46;;;;;;;3.63;1.48;;;;;9.90;100958.00;;;;5024674;28;20686;-78
2022/01/07 02:27:14;;;;;;;2.75;1.58;;;;;9.90;100959.00;;;;5025490;28;20201;-78
2022/01/07 02:29:43;;;;;;;5.10;1.60;;;;;9.90;100951.00;;;;5029884;28;20712;-79
2022/01/07 02:32:11;;;;;;;4.10;1.30;;;;;9.90;100947.00;;;;5030037;28;20207;-78
2022/01/07 02:34:38;;;;;;;3.88;1.58;;;;;9.90;100937.00;;;;5029533;28;20664;-78
2022/01/07 02:37:07;;;;;;;1.92;1.58;;;;;9.90;100938.00;;;;5024979;28;20316;-78
2022/01/07 02:39:35;;;;;;;3.50;1.85;;;;;9.90;100939.00;;;;5029469;28;20693;-78
2022/01/07 02:42:02;;;;;;;3.40;2.05;;;;;9.90;100942.00;;;;5023456;28;20252;-79
2022/01/07 02:44:29;;;;;;;5.05;1.90;;;;;9.90;100924.00;;;;5022873;28;20192;-78
2022/01/07 02:46:57;;;;;;;4.15;1.33;;;;;9.90;100939.00;;;;5029687;28;20231;-78
2022/01/07 02:49:24;;;;;;;2.70;1.50;;;;;9.90;100930.00;;;;5029925;28;20612;-78
2022/01/07 02:51:51;;;;;;;3.20;1.50;;;;;9.90;100918.00;;;;5029016;28;20622;-79
2022/01/07 02:54:20;;;;;;;4.18;2.00;;;;;9.90;100923.00;;;;5023380;28;20192;-78
2022/01/07 02:56:47;;;;;;;4.05;1.60;;;;;9.90;100923.00;;;;5019906;28;20844;-79
2022/01/07 02:59:14;;;;;;;3.45;1.58;;;;;9.90;100915.00;;;;5029983;28;20211;-79
2022/01/07 03:01:42;;;;;;;3.58;2.13;;;;;9.90;100920.00;;;;5012695;28;20201;-79
2022/01/07 03:04:10;;;;;;;3.28;1.88;;;;;9.90;100921.00;;;;5019546;28;20205;-79
2022/01/07 03:06:38;;;;;;;3.55;1.50;;;;;9.90;100910.00;;;;5017501;28;20604;-78
2022/01/07 03:09:06;;;;;;;5.35;1.88;;;;;9.90;100903.00;;;;5010206;28;20196;-78
2022/01/07 03:11:35;;;;;;;3.00;1.80;;;;;9.90;100905.00;;;;5014334;28;20246;-78
2022/01/07 03:14:03;;;;;;;5.53;2.10;;;;;9.90;100907.00;;;;5018685;28;20197;-78
2022/01/07 03:16:30;;;;;;;1.85;1.23;;;;;9.90;100908.00;;;;5018156;28;20231;-79
2022/01/07 03:18:58;;;;;;;2.03;1.40;;;;;9.90;100901.00;;;;5014563;28;20236;-78
2022/01/07 03:21:25;;;;;;;3.50;1.58;;;;;9.90;100895.00;;;;5029982;28;20196;-79
2022/01/07 03:23:52;;;;;;;2.92;2.13;;;;;9.90;100906.00;;;;5013516;28;20204;-79
2022/01/07 03:26:20;;;;;;;2.00;1.48;;;;;9.90;100898.00;;;;5016203;28;20203;-79
2022/01/07 03:28:48;;;;;;;2.42;1.70;;;;;9.80;100885.00;;;;5019606;28;20196;-78
2022/01/07 03:31:16;;;;;;;2.40;1.33;;;;;9.90;100885.00;;;;5010425;28;20193;-78
2022/01/07 03:33:43;;;;;;;2.45;1.40;;;;;9.90;100887.00;;;;5016178;28;20196;-78
2022/01/07 03:36:10;;;;;;;4.38;1.85;;;;;9.90;100894.00;;;;5014828;28;20270;-79
2022/01/07 03:38:38;;;;;;;3.47;1.77;;;;;9.90;100883.00;;;;5009569;28;20664;-78
2022/01/07 03:41:05;;;;;;;3.58;1.77;;;;;9.90;100885.00;;;;5016167;28;20193;-78
2022/01/07 03:43:33;;;;;;;2.80;1.70;;;;;9.90;100889.00;;;;5024794;28;20197;-79
2022/01/07 03:46:01;;;;;;;3.65;1.92;;;;;9.90;100878.00;;;;5028850;28;20188;-78
2022/01/07 03:48:29;;;;;;;1.50;1.23;;;;;9.90;100884.00;;;;5018924;28;20201;-79
2022/01/07 03:50:56;;;;;;;1.67;1.30;;;;;9.90;100883.00;;;;5026530;28;20235;-79
2022/01/07 03:53:24;;;;;;;2.95;2.00;;;;;9.90;100881.00;;;;5012997;28;20611;-79
2022/01/07 03:55:53;;;;;;;2.13;1.55;;;;;9.90;100871.00;;;;5040688;28;20220;-79
2022/01/07 03:58:20;;;;;;;2.25;1.38;;;;;9.90;100874.00;;;;5028850;28;20200;-78
2022/01/07 04:00:47;;;;;;;3.13;1.40;;;;;9.90;100874.00;;;;5028394;28;20204;-79
2022/01/07 04:03:19;;;;;;;1.52;1.42;;;;;9.90;100871.00;;;;5025131;28;20200;-79
2022/01/07 04:05:47;;;;;;;2.45;1.52;;;;;10.00;100860.00;;;;5012904;28;20208;-79
2022/01/07 04:08:14;;;;;;;2.25;1.77;;;;;9.90;100860.00;;;;5020466;28;20263;-79
2022/01/07 04:10:42;;;;;;;2.85;1.88;;;;;9.90;100861.00;;;;5009088;28;20192;-79
2022/01/07 04:13:09;;;;;;;3.88;1.45;;;;;9.90;100869.00;;;;5017726;28;20208;-78
2022/01/07 04:15:37;;;;;;;2.45;1.67;;;;;9.90;100855.00;;;;5008792;28;20228;-78
2022/01/07 04:18:04;;;;;;;1.80;1.58;;;;;9.90;100850.00;;;;5009331;28;20224;-78
2022/01/07 04:20:35;;;;;;;2.22;1.40;;;;;9.90;100837.00;;;;5008608;28;20215;-79
2022/01/07 04:23:03;;;;;;;2.78;1.55;;;;;9.90;100853.00;;;;5010001;28;20565;-79
2022/01/07 04:25:31;;;;;;;2.42;1.70;;;;;9.90;100837.00;;;;5018248;28;20238;-79
2022/01/07 04:28:01;;;;;;;2.50;1.73;;;;;9.90;100849.00;;;;5032599;28;20211;-79
2022/01/07 04:30:31;;;;;;;2.78;1.77;;;;;9.90;100839.00;;;;5032678;28;20207;-79
2022/01/07 04:33:01;;;;;;;1.95;1.60;;;;;10.00;100830.00;;;;5029867;28;20200;-79
2022/01/07 04:35:29;;;;;;;2.65;1.90;;;;;10.00;100832.00;;;;5012693;28;20683;-79
2022/01/07 04:37:58;;;;;;;2.53;1.90;;;;;9.90;100837.00;;;;5025317;28;20223;-79
2022/01/07 04:40:27;;;;;;;3.05;1.88;;;;;10.00;100817.00;;;;5026506;28;20197;-78
2022/01/07 04:42:54;;;;;;;2.10;1.80;;;;;10.00;100826.00;;;;5029326;28;20200;-79
2022/01/07 04:45:22;;;;;;;2.63;2.28;;;;;10.00;100814.00;;;;5014910;28;20200;-79
2022/01/07 04:47:49;;;;;;;3.42;1.98;;;;;9.90;100822.00;;;;5020107;28;20203;-79
2022/01/07 04:50:18;;;;;;;2.22;2.03;;;;;9.90;100818.00;;;;5032216;28;20196;-79
2022/01/07 04:52:46;;;;;;;2.47;2.08;;;;;10.00;100810.00;;;;5019406;28;20200;-79
2022/01/07 04:55:16;;;;;;;2.92;2.17;;;;;9.90;100806.00;;;;5028556;28;20199;-78
2022/01/07 04:57:43;;;;;;;2.58;2.28;;;;;9.90;100803.00;;;;5026386;28;20269;-79
2022/01/07 05:00:12;;;;;;;3.42;2.30;;;;;9.90;100797.00;;;;5024032;28;20996;-78
2022/01/07 05:02:39;;;;;;;3.72;2.47;;;;;9.90;100796.00;;;;5030713;28;20200;-78
2022/01/07 05:05:08;;;;;;;2.72;2.28;;;;;9.90;100793.00;;;;5029457;28;20220;-78
2022/01/07 05:07:36;;;;;;;2.63;2.10;;;;;9.90;100793.00;;;;5030393;28;20195;-79
2022/01/07 05:10:04;;;;;;;4.38;2.38;;;;;10.00;100778.00;;;;5012109;28;20197;-78
2022/01/07 05:12:33;;;;;;;2.70;2.33;;;;;10.00;100788.00;;;;5011430;28;20197;-79
2022/01/07 05:15:00;;;;;;;5.03;2.70;;;;;10.00;100788.00;;;;5017868;28;20201;-79
2022/01/07 05:17:27;;;;;;;3.55;2.55;;;;;10.00;100795.00;;;;5019881;28;20232;-78
2022/01/07 05:19:55;;;;;;;2.80;2.42;;;;;10.10;100795.00;;;;5029984;28;20205;-79
2022/01/07 05:22:22;;;;;;;3.10;2.80;;;;;10.10;100794.00;;;;5028707;28;20266;-79
2022/01/07 05:24:49;;;;;;;3.33;2.78;;;;;10.10;100779.00;;;;5009925;28;20896;-79
2022/01/07 05:27:17;;;;;;;3.55;2.50;;;;;10.10;100793.00;;;;5020110;28;20192;-79
2022/01/07 05:29:45;;;;;;;3.22;2.78;;;;;10.20;100801.00;;;;5017360;28;20219;-78
2022/01/07 05:32:13;;;;;;;3.17;2.78;;;;;10.20;100791.00;;;;5019948;28;20197;-79
2022/01/07 05:34:40;;;;;;;3.40;3.10;;;;;10.20;100791.00;;;;5010359;28;20209;-79
2022/01/07 05:37:10;;;;;;;5.00;3.03;;;;;10.30;100786.00;;;;5016168;28;20220;-79
2022/01/07 05:39:37;;;;;;;4.32;3.10;;;;;10.30;100789.00;;;;5029175;28;20207;-79
2022/01/07 05:42:05;;;;;;;6.78;3.67;;;;;10.30;100784.00;;;;5018731;28;20204;-79
2022/01/07 05:44:33;;;;;;;4.43;3.40;;;;;10.30;100788.00;;;;5022529;28;20197;-79
2022/01/07 05:47:02;;;;;;;3.60;3.15;;;;;10.30;100780.00;;;;5017089;28;20203;-79
2022/01/07 05:49:29;;;;;;;3.70;3.30;;;;;10.40;100789.00;;;;5026251;28;20675;-79
2022/01/07 05:51:56;;;;;;;3.95;3.53;;;;;10.40;100780.00;;;;5014840;28;20208;-78
2022/01/07 05:54:23;;;;;;;4.13;3.72;;;;;10.40;100778.00;;;;5025392;28;20200;-79
2022/01/07 05:56:51;;;;;;;5.47;3.80;;;;;10.50;100790.00;;;;5016369;28;20227;-79
2022/01/07 05:59:18;;;;;;;4.93;3.83;;;;;10.50;100782.00;;;;5029321;28;20670;-78
2022/01/07 06:01:45;;;;;;;4.60;4.20;;;;;10.50;100787.00;;;;5028540;28;20204;-79
2022/01/07 06:04:14;;;;;;;4.45;4.05;;;;;10.50;100794.00;;;;5022262;28;20208;-79
2022/01/07 06:06:41;;;;;;;6.30;4.03;;;;;10.60;100803.00;;;;5017222;28;20703;-79
2022/01/07 06:09:08;;;;;;;4.90;4.40;;;;;10.60;100795.00;;;;5019515;28;20201;-80
2022/01/07 06:11:36;;;;;;;4.90;4.20;;;;;10.60;100790.00;;;;5008890;28;20251;-80
2022/01/07 06:14:04;;;;;;;5.40;4.40;;;;;10.70;100788.00;;;;5009123;28;20251;-79
2022/01/07 06:16:31;;;;;;;5.78;4.70;;;;;10.70;100787.00;;;;5026057;28;20278;-79
2022/01/07 06:18:59;;;;;;;4.88;4.38;;;;;10.70;100793.00;;;;4983460;28;1055506;-79
2022/01/07 06:21:28;;;;;;;6.30;4.32;;;;;10.70;100797.00;;;;5017683;28;20201;-79
2022/01/07 06:23:55;;;;;;;6.30;4.93;;;;;10.80;100794.00;;;;5012485;28;20287;-80
2022/01/07 06:26:23;;;;;;;6.22;5.30;;;;;10.80;100799.00;;;;5019137;28;20220;-79
2022/01/07 06:28:51;;;;;;;5.60;4.45;;;;;10.80;100794.00;;;;5018625;28;20203;-80
2022/01/07 06:31:18;;;;;;;7.22;5.20;;;;;10.80;100791.00;;;;5029495;28;20226;-80
2022/01/07 06:33:46;;;;;;;6.30;4.55;;;;;10.80;100791.00;;;;5021944;28;20299;-80
2022/01/07 06:36:13;;;;;;;6.18;4.40;;;;;10.80;100790.00;;;;5017963;28;20200;-79
2022/01/07 06:38:42;;;;;;;5.40;4.72;;;;;10.80;100794.00;;;;5009599;28;20228;-80
2022/01/07 06:41:09;;;;;;;5.40;4.30;;;;;10.90;100795.00;;;;5019144;28;21048;-80
2022/01/07 06:43:36;;;;;;;5.13;4.55;;;;;10.90;100799.00;;;;5028651;28;20200;-80
2022/01/07 06:46:05;;;;;;;7.18;5.35;;;;;10.90;100792.00;;;;5029162;28;20203;-80
2022/01/07 06:48:33;;;;;;;5.95;5.35;;;;;10.90;100791.00;;;;5027451;28;20199;-80
2022/01/07 06:51:00;;;;;;;6.72;6.05;;;;;10.90;100790.00;;;;5009688;28;20204;-80
2022/01/07 06:53:29;;;;;;;8.10;5.20;;;;;10.90;100787.00;;;;5015682;28;20204;-80
2022/01/07 06:55:58;;;;;;;6.72;5.45;;;;;10.90;100787.00;;;;5009666;28;20232;-80
2022/01/07 06:58:25;;;;;;;5.57;5.07;;;;;11.00;100791.00;;;;5021315;28;20231;-80
2022/01/07 07:00:52;;;;;;;7.35;5.75;;;;;11.00;100787.00;;;;5016617;28;20188;-80
2022/01/07 07:03:20;;;;;;;6.68;5.80;;;;;11.00;100797.00;;;;5023216;28;20231;-79
2022/01/07 07:05:47;;;;;;;7.65;5.65;;;;;11.00;100790.00;;;;5019580;28;20221;-80
2022/01/07 07:08:16;;;;;;;7.72;5.68;;;;;11.00;100782.00;;;;5015794;28;20216;-80
2022/01/07 07:10:43;;;;;;;8.32;6.68;;;;;11.00;100789.00;;;;5013244;28;20197;-80
2022/01/07 07:13:12;;;;;;;7.25;6.30;;;;;11.00;100777.00;;;;5016552;28;20196;-80
2022/01/07 07:15:39;;;;;;;10.05;5.70;;;;;11.10;100780.00;;;;5015784;28;20204;-80
2022/01/07 07:18:06;;;;;;;6.85;5.70;;;;;11.10;100784.00;;;;5012389;28;20229;-79
2022/01/07 07:20:34;;;;;;;7.78;5.63;;;;;11.10;100791.00;;;;5009477;28;20200;-80
2022/01/07 07:23:01;;;;;;;6.18;5.53;;;;;11.10;100783.00;;;;5018179;28;20208;-79
2022/01/07 07:25:28;;;;;;;6.05;5.07;;;;;11.10;100788.00;;;;5029833;28;20188;-79
2022/01/07 07:27:55;;;;;;;9.48;5.43;;;;;11.10;100794.00;;;;5028371;28;20196;-79
2022/01/07 07:30:26;;;;;;;6.00;5.03;;;;;11.20;100795.00;;;;5023494;28;20203;-80
2022/01/07 07:32:54;;;;;;;8.55;5.97;;;;;11.20;100789.00;;;;5018615;28;20654;-80
2022/01/07 07:38:06;;;;;;;7.47;5.82;;;;;11.20;100783.00;;;;5015817;28;20303;-79
2022/01/07 07:40:33;;;;;;;7.50;5.88;;;;;11.20;100783.00;;;;5015130;28;20551;-79
2022/01/07 07:43:00;;;;;;;7.85;5.82;;;;;11.30;100780.00;;;;5027404;28;20196;-78
2022/01/07 07:45:29;;;;;;;8.38;5.78;;;;;11.30;100785.00;;;;5024150;28;20553;-78
2022/01/07 07:47:56;;;;;;;7.20;5.75;;;;;11.30;100797.00;;;;5008118;28;20201;-78
2022/01/07 07:50:24;;;;;;;8.38;5.78;;;;;11.30;100789.00;;;;5021353;28;20670;-78
2022/01/07 07:52:51;;;;;;;8.00;5.10;;;;;11.30;100791.00;;;;5022089;28;20248;-79
2022/01/07 07:55:18;;;;;;;10.15;6.07;;;;;11.30;100783.00;;;;5027165;28;20226;-79
2022/01/07 07:57:45;;;;;;;11.25;6.63;;;;;11.30;100789.00;;;;5026162;28;20231;-79
2022/01/07 08:00:14;;;;;;;7.78;6.35;;;;;11.30;100784.00;;;;5009110;28;20457;-79
2022/01/07 08:02:43;;;;;;;7.32;6.07;;;;;11.30;100797.00;;;;5008713;28;20216;-79
2022/01/07 08:05:11;;;;;;;8.23;5.80;;;;;11.40;100791.00;;;;5024338;28;20238;-81
2022/01/07 08:07:38;;;;;;;8.43;6.30;;;;;11.40;100787.00;;;;5011447;28;20235;-79
2022/01/07 08:10:07;;;;;;;6.72;5.50;;;;;11.40;100791.00;;;;5013844;28;20215;-80
2022/01/07 08:12:52;;;;;;;10.15;5.80;;;;;11.40;100785.00;;;;5021825;28;20210;-81
2022/01/07 08:18:06;;;;;;;6.43;5.47;;;;;11.40;100780.00;;;;5020432;28;20258;-81
2022/01/07 08:20:34;;;;;;;6.72;6.00;;;;;11.50;100776.00;;;;5017421;28;20196;-82
2022/01/07 08:23:02;;;;;;;9.77;6.90;;;;;11.40;100781.00;;;;5019424;28;20197;-79
2022/01/07 08:25:31;;;;;;;6.47;5.85;;;;;11.40;100766.00;;;;5027735;28;20200;-80
2022/01/07 08:28:01;;;;;;;7.57;5.95;;;;;11.40;100768.00;;;;5013235;28;20193;-81
2022/01/07 08:30:37;;;;;;;6.97;6.10;;;;;11.50;100778.00;;;;5012790;28;20282;-80
2022/01/07 08:35:52;;;;;;;6.90;5.40;;;;;11.50;100785.00;;;;5010838;28;20314;-80
2022/01/07 08:38:19;;;;;;;9.27;6.38;;;;;11.50;100793.00;;;;5030812;28;20224;-80
2022/01/07 08:40:46;;;;;;;8.73;5.47;;;;;11.50;100797.00;;;;5023924;28;20203;-80
2022/01/07 08:43:14;;;;;;;6.97;5.53;;;;;11.50;100789.00;;;;5016224;28;20193;-80
2022/01/07 08:45:42;;;;;;;7.55;5.97;;;;;11.50;100782.00;;;;5027240;28;20216;-80
2022/01/07 08:48:11;;;;;;;5.43;4.93;;;;;11.50;100786.00;;;;5015567;28;20208;-80
2022/01/07 08:50:38;;;;;;;5.50;5.00;;;;;11.50;100787.00;;;;5022083;28;20609;-81
2022/01/07 08:53:06;;;;;;;6.75;4.55;;;;;11.50;100788.00;;;;5027211;28;20197;-80
2022/01/07 08:55:33;;;;;;;5.95;4.70;;;;;11.40;100775.00;;;;5026549;28;20193;-80
2022/01/07 08:58:00;;;;;;;6.43;5.60;;;;;11.40;100780.00;;;;5026430;28;20224;-79
2022/01/07 09:00:29;;;;;;;5.15;4.65;;;;;11.30;100769.00;;;;5031309;28;20200;-79
2022/01/07 09:02:56;;;;;;;6.53;4.82;;;;;11.30;100784.00;;;;5009803;28;20207;-80
2022/01/07 09:05:25;;;;;;;5.60;4.53;;;;;11.30;100782.00;;;;5015045;28;20220;-80
2022/01/07 09:07:52;;;;;;;7.05;4.22;;;;;11.30;100776.00;;;;5015304;28;20201;-79
2022/01/07 09:10:20;;;;;;;6.78;4.45;;;;;11.30;100785.00;;;;5025161;28;20218;-81
2022/01/07 09:12:47;;;;;;;9.63;5.80;;;;;11.20;100777.00;;;;5011770;28;20220;-81
2022/01/07 09:15:15;;;;;;;4.93;4.18;;;;;11.20;100765.00;;;;5012542;28;20213;-80
2022/01/07 09:17:42;;;;;;;6.95;4.43;;;;;11.20;100768.00;;;;5023517;28;20703;-79
2022/01/07 09:20:11;;;;;;;5.18;4.40;;;;;11.20;100772.00;;;;5019336;28;20200;-79
2022/01/07 09:22:39;;;;;;;4.88;4.38;;;;;11.20;100768.00;;;;5018027;28;20196;-79
2022/01/07 09:25:08;;;;;;;6.53;4.28;;;;;11.20;100770.00;;;;5029257;28;20204;-80
2022/01/07 09:27:36;;;;;;;6.05;3.70;;;;;11.20;100770.00;;;;5030577;28;20200;-80
2022/01/07 09:30:04;;;;;;;6.75;4.25;;;;;11.20;100764.00;;;;5030323;28;20208;-79
2022/01/07 09:32:32;;;;;;;3.92;3.53;;;;;11.20;100769.00;;;;5019111;28;20196;-80
2022/01/07 09:34:59;;;;;;;6.82;4.72;;;;;11.20;100767.00;;;;5014926;28;20197;-78
2022/01/07 09:37:26;;;;;;;4.00;3.60;;;;;11.30;100760.00;;;;5029810;28;20192;-77
2022/01/07 09:39:55;;;;;;;6.00;3.90;;;;;11.30;100768.00;;;;5016456;28;20216;-78
2022/01/07 09:42:22;;;;;;;5.10;3.78;;;;;11.30;100754.00;;;;5027884;28;20204;-79
2022/01/07 09:44:49;;;;;;;4.68;3.83;;;;;11.30;100772.00;;;;5028722;28;20196;-78
2022/01/07 09:47:17;;;;;;;3.65;3.35;;;;;11.40;100765.00;;;;5027554;28;20192;-78
2022/01/07 09:49:45;;;;;;;4.30;3.85;;;;;11.40;100767.00;;;;5021185;28;20539;-78
2022/01/07 09:52:12;;;;;;;9.00;4.07;;;;;11.50;100772.00;;;;5019944;28;20220;-78
2022/01/07 09:54:40;;;;;;;5.30;4.10;;;;;11.50;100761.00;;;;5029715;28;20266;-78
2022/01/07 09:57:10;;;;;;;7.10;4.00;;;;;11.50;100763.00;;;;5017381;28;20658;-78
2022/01/07 09:59:38;;;;;;;7.15;4.05;;;;;11.50;100770.00;;;;5010457;28;20654;-79
2022/01/07 10:02:06;;;;;;;4.57;3.92;;;;;11.50;100764.00;;;;5011200;28;20197;-78
2022/01/07 10:04:35;;;;;;;5.25;3.60;;;;;11.60;100766.00;;;;5017893;28;20219;-78
2022/01/07 10:07:16;;;;;;;4.32;3.90;;;;;11.60;100767.00;;;;5019482;28;20217;-78
2022/01/07 10:09:57;;;;;;;3.75;3.35;;;;;11.70;100765.00;;;;5019340;28;20208;-78
2022/01/07 10:12:27;;;;;;;4.55;3.50;;;;;11.70;100761.00;;;;5014526;28;20203;-78
2022/01/07 10:15:11;;;;;;;3.92;3.03;;;;;11.60;100759.00;;;;5030533;28;20211;-78
2022/01/07 10:17:39;;;;;;;4.88;3.58;;;;;11.70;100755.00;;;;5027732;28;20224;-78
2022/01/07 10:20:07;;;;;;;6.20;3.90;;;;;11.80;100764.00;;;;5016479;28;20197;-77
2022/01/07 10:22:51;;;;;;;4.63;3.40;;;;;11.70;100756.00;;;;5009941;28;20205;-77
2022/01/07 10:25:23;;;;;;;3.83;2.95;;;;;11.80;100753.00;;;;5012214;28;20203;-79
2022/01/07 10:27:52;;;;;;;4.00;3.17;;;;;11.90;100751.00;;;;5011327;28;20196;-79
2022/01/07 10:30:25;;;;;;;3.80;2.95;;;;;12.00;100747.00;;;;5018380;28;20192;-79
2022/01/07 10:32:54;;;;;;;4.28;3.60;;;;;12.00;100758.00;;;;5010218;28;20189;-79
2022/01/07 10:35:23;;;;;;;4.75;3.10;;;;;12.10;100748.00;;;;5026291;28;20227;-79
2022/01/07 10:37:55;;;;;;;3.85;3.03;;;;;12.20;100752.00;;;;5023685;28;20963;-79
2022/01/07 10:40:29;;;;;;;5.63;3.83;;;;;12.20;100744.00;;;;5012970;28;20663;-79
2022/01/07 10:43:13;;;;;;;3.47;3.08;;;;;12.20;100751.00;;;;5017715;28;20201;-78
2022/01/07 10:45:41;;;;;;;5.47;3.13;;;;;12.30;100746.00;;;;5020074;28;20208;-79
2022/01/07 10:48:09;;;;;;;5.32;3.38;;;;;12.40;100745.00;;;;5016439;28;20200;-79
2022/01/07 10:50:42;;;;;;;4.95;2.58;;;;;12.40;100743.00;;;;5021285;28;20678;-79
2022/01/07 10:53:23;;;;;;;6.28;2.80;;;;;12.40;100740.00;;;;5017771;28;20205;-79
2022/01/07 10:56:09;;;;;;;6.05;2.88;;;;;12.50;100739.00;;;;5017842;28;20203;-81
2022/01/07 10:59:01;;;;;;;4.13;2.38;;;;;12.60;100733.00;;;;5017194;28;20349;-80
2022/01/07 11:01:41;;;;;;;4.80;2.35;;;;;12.70;100735.00;;;;5010905;28;20200;-79
2022/01/07 11:04:14;;;;;;;3.40;1.83;;;;;12.80;100734.00;;;;5019048;28;20192;-80
2022/01/07 11:06:42;;;;;;;3.13;1.65;;;;;12.90;100738.00;;;;5016863;28;20294;-80
2022/01/07 11:09:11;;;;;;;2.00;1.83;;;;;12.90;100732.00;;;;5025045;28;20258;-80
2022/01/07 11:11:48;;;;;;;6.00;2.38;;;;;13.00;100727.00;;;;5013323;28;20197;-80
2022/01/07 11:14:22;;;;;;;5.97;2.13;;;;;13.00;100724.00;;;;5017648;28;20200;-81
2022/01/07 11:16:50;;;;;;;4.28;1.95;;;;;13.10;100721.00;;;;5016961;28;20196;-80
2022/01/07 11:19:21;;;;;;;2.28;1.52;;;;;13.10;100721.00;;;;5011415;28;20248;-79
2022/01/07 11:21:52;;;;;;;2.95;2.05;;;;;13.20;100722.00;;;;5016368;28;20965;-78
2022/01/07 11:24:39;;;;;;;4.43;1.60;;;;;13.00;100737.00;;;;5015304;28;20741;-79
2022/01/07 11:27:09;;;;;;;3.25;1.67;;;;;13.10;100740.00;;;;5015384;28;20201;-79
2022/01/07 11:29:40;;;;;;;3.72;1.48;;;;;13.10;100742.00;;;;5023013;28;20918;-80
2022/01/07 11:32:32;;;;;;;5.13;1.40;;;;;13.00;100741.00;;;;5036393;28;20219;-78
2022/01/07 11:35:45;;;;;;;2.33;1.23;;;;;13.00;100735.00;;;;5012992;28;20204;-78
2022/01/07 11:38:39;;;;;;;1.52;1.10;;;;;12.90;100743.00;;;;5012176;28;20223;-79
2022/01/07 11:41:11;;;;;;;3.63;1.20;;;;;13.00;100741.00;;;;5006620;28;20201;-78
2022/01/07 11:43:44;;;;;;;3.50;0.98;;;;;13.00;100739.00;;;;5018427;28;20667;-79
2022/01/07 11:46:32;;;;;;;5.15;1.73;;;;;12.90;100733.00;;;;5021249;28;20574;-78
2022/01/07 11:49:05;;;;;;;4.38;1.52;;;;;13.00;100738.00;;;;5012902;28;20199;-79
2022/01/07 11:51:43;;;;;;;5.18;1.50;;;;;12.90;100735.00;;;;5017188;28;20197;-79
2022/01/07 11:54:14;;;;;;;5.78;1.55;;;;;13.00;100734.00;;;;5012226;28;20548;-79
2022/01/07 11:56:43;;;;;;;7.07;1.88;;;;;13.00;100723.00;;;;5023300;28;21028;-78
2022/01/07 11:59:27;;;;;;;3.13;1.15;;;;;12.90;100731.00;;;;5021196;28;20228;-79
2022/01/07 12:02:05;;;;;;;6.03;0.98;;;;;12.90;100726.00;;;;5021806;28;20192;-80
2022/01/07 12:04:35;;;;;;;2.38;1.00;;;;;13.00;100730.00;;;;5017165;28;20204;-81
2022/01/07 12:07:05;;;;;;;2.97;0.90;;;;;13.00;100722.00;;;;5009489;28;20217;-81
2022/01/07 12:09:34;;;;;;;4.30;1.40;;;;;13.00;100723.00;;;;5016324;28;20197;-80
2022/01/07 12:12:05;;;;;;;4.35;1.65;;;;;13.10;100721.00;;;;5015426;28;20204;-80
2022/01/07 12:14:40;;;;;;;6.18;1.20;;;;;13.10;100720.00;;;;5009976;28;20190;-81
2022/01/07 12:17:13;;;;;;;1.48;0.85;;;;;13.10;100723.00;;;;5015534;28;20242;-80
2022/01/07 12:20:17;;;;;;;2.85;1.02;;;;;13.10;100725.00;;;;5018041;28;20720;-80
2022/01/07 12:22:52;;;;;;;3.10;0.73;;;;;13.20;100730.00;;;;5010713;28;20203;-79
2022/01/07 12:25:20;;;;;;;5.50;0.98;;;;;13.30;100721.00;;;;5011895;28;20212;-80
2022/01/07 12:27:47;;;;;;;2.65;0.95;;;;;13.30;100726.00;;;;5010876;28;20590;-80
2022/01/07 12:30:15;;;;;;;3.58;0.80;;;;;13.30;100725.00;;;;5039767;28;20300;-79